createdAt,value
2023-01-11T00:00:21.976Z,4.93
2023-01-11T00:01:23.863Z,4.92
2023-01-11T00:02:25.600Z,4.90
2023-01-11T00:03:27.144Z,4.92
2023-01-11T00:04:30.688Z,4.96
2023-01-11T00:05:37.456Z,5.01
2023-01-11T00:06:39.010Z,5.03
2023-01-11T00:07:41.090Z,5.08
2023-01-11T00:08:42.623Z,5.10
2023-01-11T00:09:44.855Z,5.11
2023-01-11T00:10:46.427Z,5.12
2023-01-11T00:11:48.113Z,5.17
2023-01-11T00:12:49.699Z,5.18
2023-01-11T00:13:51.376Z,5.10
2023-01-11T00:14:52.943Z,5.10
2023-01-11T00:15:54.607Z,5.09
2023-01-11T00:16:59.140Z,5.17
2023-01-11T00:18:03.054Z,5.20
2023-01-11T00:19:04.900Z,5.22
2023-01-11T00:20:07.489Z,5.23
2023-01-11T00:21:09.584Z,5.25
2023-01-11T00:22:11.116Z,5.29
2023-01-11T00:23:13.029Z,5.30
2023-01-11T00:24:14.558Z,5.24
2023-01-11T00:25:16.249Z,5.11
2023-01-11T00:26:17.979Z,5.03
2023-01-11T00:27:19.525Z,5.01
2023-01-11T00:28:21.066Z,5.03
2023-01-11T00:29:22.718Z,5.04
2023-01-11T00:30:24.586Z,5.05
2023-01-11T00:31:26.228Z,5.00
2023-01-11T00:32:27.931Z,5.01
2023-01-11T00:33:29.703Z,5.01
2023-01-11T00:34:31.220Z,5.02
2023-01-11T00:35:32.815Z,5.01
2023-01-11T00:36:34.872Z,5.00
2023-01-11T00:37:36.481Z,4.95
2023-01-11T00:38:44.155Z,4.90
2023-01-11T00:39:45.704Z,4.87
2023-01-11T00:40:47.278Z,4.78
2023-01-11T00:42:07.667Z,4.81
2023-01-11T00:43:28.293Z,4.88
2023-01-11T00:44:48.008Z,4.91
2023-01-11T00:46:07.889Z,4.83
2023-01-11T00:47:37.050Z,4.84
2023-01-11T00:48:38.665Z,4.84
2023-01-11T00:49:40.375Z,4.85
2023-01-11T00:50:41.957Z,4.82
2023-01-11T00:51:43.486Z,4.82
2023-01-11T00:52:45.094Z,4.88
2023-01-11T00:53:48.496Z,4.89
2023-01-11T00:54:50.236Z,4.96
2023-01-11T00:55:51.777Z,5.03
2023-01-11T00:56:53.340Z,5.12
2023-01-11T00:57:54.947Z,5.18
2023-01-11T00:58:56.552Z,5.18
2023-01-11T00:59:58.117Z,5.24
2023-01-11T01:01:06.617Z,5.33
2023-01-11T01:02:09.702Z,5.41
2023-01-11T01:03:11.317Z,5.48
2023-01-11T01:04:12.939Z,5.53
2023-01-11T01:05:14.690Z,5.61
2023-01-11T01:06:16.322Z,5.66
2023-01-11T01:07:17.927Z,5.70
2023-01-11T01:08:19.663Z,5.72
2023-01-11T01:09:21.262Z,5.70
2023-01-11T01:10:22.828Z,5.66
2023-01-11T01:11:24.498Z,5.71
2023-01-11T01:12:44.663Z,5.74
2023-01-11T01:14:04.980Z,5.74
2023-01-11T01:15:07.065Z,5.80
2023-01-11T01:16:08.686Z,5.84
2023-01-11T01:17:10.190Z,5.79
2023-01-11T01:18:11.823Z,5.69
2023-01-11T01:19:14.076Z,5.48
2023-01-11T01:20:15.994Z,5.31
2023-01-11T01:21:17.594Z,5.16
2023-01-11T01:22:19.164Z,5.11
2023-01-11T01:23:20.668Z,5.04
2023-01-11T01:24:22.463Z,4.96
2023-01-11T01:25:24.082Z,4.87
2023-01-11T01:26:25.707Z,4.80
2023-01-11T01:27:27.238Z,4.69
2023-01-11T01:28:28.791Z,4.65
2023-01-11T01:29:30.414Z,4.59
2023-01-11T01:30:33.703Z,4.53
2023-01-11T01:31:35.398Z,4.60
2023-01-11T01:32:37.009Z,4.70
2023-01-11T01:33:39.079Z,4.79
2023-01-11T01:34:40.726Z,4.86
2023-01-11T01:35:42.265Z,4.90
2023-01-11T01:36:43.985Z,4.77
2023-01-11T01:37:45.541Z,4.67
2023-01-11T01:38:47.265Z,4.58
2023-01-11T01:39:48.893Z,4.44
2023-01-11T01:40:50.475Z,4.29
2023-01-11T01:41:52.127Z,4.21
2023-01-11T01:42:54.883Z,4.14
2023-01-11T01:43:59.046Z,4.09
2023-01-11T01:45:06.182Z,4.08
2023-01-11T01:46:07.778Z,4.10
2023-01-11T01:47:09.936Z,4.14
2023-01-11T01:48:18.546Z,4.13
2023-01-11T01:49:20.178Z,4.13
2023-01-11T01:50:28.174Z,4.15
2023-01-11T01:51:39.201Z,4.15
2023-01-11T01:52:41.488Z,4.19
2023-01-11T01:53:47.688Z,4.22
2023-01-11T01:54:49.539Z,4.25
2023-01-11T01:55:56.525Z,4.31
2023-01-11T01:57:02.380Z,4.39
2023-01-11T01:58:10.305Z,4.44
2023-01-11T01:59:15.559Z,4.48
2023-01-11T02:00:17.967Z,4.58
2023-01-11T02:01:39.031Z,4.65
2023-01-11T02:02:44.104Z,4.76
2023-01-11T02:03:47.006Z,4.78
2023-01-11T02:04:49.411Z,4.83
2023-01-11T02:05:53.440Z,4.85
2023-01-11T02:07:08.870Z,4.67
2023-01-11T02:08:30.161Z,4.59
2023-01-11T02:10:08.101Z,4.49
2023-01-11T02:11:29.800Z,4.48
2023-01-11T02:12:49.142Z,4.49
2023-01-11T02:13:50.809Z,4.60
2023-01-11T02:14:55.004Z,4.68
2023-01-11T02:16:09.798Z,4.76
2023-01-11T02:17:12.037Z,4.84
2023-01-11T02:18:14.084Z,4.75
2023-01-11T02:19:44.474Z,4.60
2023-01-11T02:21:21.207Z,4.50
2023-01-11T02:22:50.393Z,4.45
2023-01-11T02:24:29.203Z,4.36
2023-01-11T02:25:30.804Z,4.33
2023-01-11T02:26:47.301Z,4.21
2023-01-11T02:28:00.637Z,4.04
2023-01-11T02:29:27.156Z,4.00
2023-01-11T02:31:04.657Z,3.97
2023-01-11T02:32:17.275Z,3.96
2023-01-11T02:33:49.800Z,3.95
2023-01-11T02:35:25.045Z,3.87
2023-01-11T02:36:45.475Z,3.86
2023-01-11T02:38:26.040Z,3.95
2023-01-11T02:39:27.577Z,4.01
2023-01-11T02:40:44.320Z,4.05
2023-01-11T02:42:14.718Z,4.15
2023-01-11T02:43:42.993Z,4.26
2023-01-11T02:45:03.524Z,4.33
2023-01-11T02:46:39.737Z,4.39
2023-01-11T02:48:00.462Z,4.47
2023-01-11T02:49:10.928Z,4.50
2023-01-11T02:50:32.700Z,4.60
2023-01-11T02:51:38.436Z,4.65
2023-01-11T02:52:56.177Z,4.65
2023-01-11T02:54:05.763Z,4.67
2023-01-11T02:55:12.514Z,4.68
2023-01-11T02:56:19.643Z,4.69
2023-01-11T02:57:22.956Z,4.69
2023-01-11T02:58:29.138Z,4.68
2023-01-11T02:59:33.129Z,4.77
2023-01-11T03:00:38.915Z,4.78
2023-01-11T03:01:48.856Z,4.84
2023-01-11T03:03:16.447Z,4.85
2023-01-11T03:04:30.210Z,4.85
2023-01-11T03:05:32.744Z,4.86
2023-01-11T03:06:35.541Z,4.85
2023-01-11T03:08:21.753Z,4.86
2023-01-11T03:09:42.032Z,4.89
2023-01-11T03:11:00.180Z,4.89
2023-01-11T03:12:42.363Z,4.84
2023-01-11T03:14:15.917Z,4.67
2023-01-11T03:15:42.390Z,4.57
2023-01-11T03:16:50.871Z,4.50
2023-01-11T03:18:00.974Z,4.45
2023-01-11T03:19:10.695Z,4.42
2023-01-11T03:20:15.140Z,4.39
2023-01-11T03:21:32.073Z,4.36
2023-01-11T03:22:41.113Z,4.30
2023-01-11T03:24:10.119Z,4.30
2023-01-11T03:25:32.260Z,4.35
2023-01-11T03:26:55.160Z,4.36
2023-01-11T03:28:06.154Z,4.21
2023-01-11T03:29:16.542Z,4.03
2023-01-11T03:30:29.241Z,3.95
2023-01-11T03:31:35.065Z,3.84
2023-01-11T03:32:45.775Z,3.76
2023-01-11T03:33:56.792Z,3.60
2023-01-11T03:35:01.359Z,3.53
2023-01-11T03:36:14.478Z,3.44
2023-01-11T03:37:25.261Z,3.37
2023-01-11T03:38:29.950Z,3.31
2023-01-11T03:39:43.182Z,3.29
2023-01-11T03:40:50.610Z,3.31
2023-01-11T03:41:57.216Z,3.26
2023-01-11T03:43:13.461Z,3.34
2023-01-11T03:44:18.618Z,3.42
2023-01-11T03:45:20.236Z,3.48
2023-01-11T03:46:29.677Z,3.54
2023-01-11T03:47:33.260Z,3.60
2023-01-11T03:48:51.800Z,3.54
2023-01-11T03:49:58.593Z,3.55
2023-01-11T03:51:03.529Z,3.61
2023-01-11T03:52:09.505Z,3.65
2023-01-11T03:53:12.266Z,3.67
2023-01-11T03:54:18.561Z,3.61
2023-01-11T03:55:24.411Z,3.63
2023-01-11T03:56:36.953Z,3.61
2023-01-11T03:57:42.350Z,3.55
2023-01-11T03:58:44.378Z,3.52
2023-01-11T03:59:46.338Z,3.56
2023-01-11T04:00:49.589Z,3.62
2023-01-11T04:01:54.392Z,3.67
2023-01-11T04:02:56.042Z,3.62
2023-01-11T04:03:57.650Z,3.58
2023-01-11T04:04:59.429Z,3.49
2023-01-11T04:06:02.179Z,3.39
2023-01-11T04:07:03.766Z,3.30
2023-01-11T04:08:05.512Z,3.25
2023-01-11T04:09:07.037Z,3.34
2023-01-11T04:10:09.311Z,3.45
2023-01-11T04:11:10.833Z,3.59
2023-01-11T04:12:12.459Z,3.67
2023-01-11T04:13:14.074Z,3.77
2023-01-11T04:14:15.731Z,3.82
2023-01-11T04:15:17.403Z,3.88
2023-01-11T04:16:18.985Z,3.93
2023-01-11T04:17:20.745Z,3.94
2023-01-11T04:18:22.384Z,3.95
2023-01-11T04:19:24.050Z,3.94
2023-01-11T04:20:25.682Z,3.99
2023-01-11T04:21:27.225Z,4.04
2023-01-11T04:22:28.771Z,4.10
2023-01-11T04:23:30.963Z,4.14
2023-01-11T04:24:32.533Z,4.22
2023-01-11T04:25:34.189Z,4.22
2023-01-11T04:26:35.831Z,4.20
2023-01-11T04:27:37.493Z,4.19
2023-01-11T04:28:39.040Z,4.19
2023-01-11T04:29:40.580Z,4.22
2023-01-11T04:30:42.160Z,4.25
2023-01-11T04:31:43.844Z,4.21
2023-01-11T04:32:45.455Z,3.90
2023-01-11T04:33:47.033Z,3.71
2023-01-11T04:34:48.650Z,3.64
2023-01-11T04:35:50.334Z,3.66
2023-01-11T04:36:51.950Z,3.74
2023-01-11T04:37:57.623Z,3.83
2023-01-11T04:38:59.461Z,3.91
2023-01-11T04:40:01.034Z,3.94
2023-01-11T04:41:23.535Z,3.94
2023-01-11T04:42:25.993Z,3.92
2023-01-11T04:43:27.580Z,3.95
2023-01-11T04:44:29.137Z,3.94
2023-01-11T04:45:30.786Z,3.91
2023-01-11T04:46:32.401Z,3.91
2023-01-11T04:47:33.985Z,3.90
2023-01-11T04:48:35.615Z,3.96
2023-01-11T04:49:37.711Z,3.98
2023-01-11T04:50:39.460Z,3.99
2023-01-11T04:51:41.406Z,4.00
2023-01-11T04:52:42.967Z,4.01
2023-01-11T04:53:48.054Z,4.03
2023-01-11T04:54:52.552Z,4.06
2023-01-11T04:55:54.145Z,4.08
2023-01-11T04:56:55.683Z,4.11
2023-01-11T04:57:57.563Z,4.14
2023-01-11T04:58:59.381Z,4.17
2023-01-11T05:00:00.912Z,4.19
2023-01-11T05:01:09.826Z,4.24
2023-01-11T05:02:11.495Z,4.25
2023-01-11T05:03:13.036Z,4.25
2023-01-11T05:04:14.703Z,4.29
2023-01-11T05:05:16.263Z,4.29
2023-01-11T05:06:22.705Z,4.32
2023-01-11T05:07:24.279Z,4.34
2023-01-11T05:08:27.730Z,4.35
2023-01-11T05:09:29.396Z,4.35
2023-01-11T05:10:32.308Z,4.35
2023-01-11T05:11:33.828Z,4.34
2023-01-11T05:12:35.488Z,4.37
2023-01-11T05:13:42.833Z,4.37
2023-01-11T05:14:44.506Z,4.37
2023-01-11T05:15:46.135Z,4.38
2023-01-11T05:16:47.856Z,4.39
2023-01-11T05:17:49.397Z,4.39
2023-01-11T05:18:56.139Z,4.42
2023-01-11T05:19:57.808Z,4.44
2023-01-11T05:20:59.363Z,4.42
2023-01-11T05:22:01.011Z,4.32
2023-01-11T05:23:02.506Z,4.28
2023-01-11T05:24:06.195Z,4.22
2023-01-11T05:25:08.253Z,4.18
2023-01-11T05:26:17.790Z,4.14
2023-01-11T05:27:19.378Z,4.09
2023-01-11T05:28:21.024Z,3.95
2023-01-11T05:29:22.719Z,3.81
2023-01-11T05:30:24.270Z,3.81
2023-01-11T05:31:26.331Z,3.85
2023-01-11T05:32:27.981Z,3.92
2023-01-11T05:33:29.891Z,3.92
2023-01-11T05:34:31.487Z,3.85
2023-01-11T05:35:33.051Z,3.80
2023-01-11T05:36:35.522Z,3.77
2023-01-11T05:37:38.368Z,3.79
2023-01-11T05:38:40.091Z,3.78
2023-01-11T05:39:41.668Z,3.81
2023-01-11T05:40:43.275Z,3.86
2023-01-11T05:41:45.170Z,3.90
2023-01-11T05:42:47.831Z,3.94
2023-01-11T05:44:09.511Z,3.98
2023-01-11T05:45:33.746Z,3.97
2023-01-11T05:46:37.404Z,4.02
2023-01-11T05:47:39.115Z,4.02
2023-01-11T05:48:41.542Z,4.02
2023-01-11T05:49:47.617Z,4.01
2023-01-11T05:50:53.888Z,4.01
2023-01-11T05:51:55.536Z,4.00
2023-01-11T05:52:57.449Z,3.94
2023-01-11T05:54:00.308Z,3.88
2023-01-11T05:55:01.851Z,3.71
2023-01-11T05:56:03.567Z,3.76
2023-01-11T05:57:10.581Z,3.81
2023-01-11T05:58:12.163Z,3.86
2023-01-11T05:59:13.909Z,3.83
2023-01-11T06:00:15.901Z,3.77
2023-01-11T06:01:18.796Z,3.67
2023-01-11T06:02:20.578Z,3.52
2023-01-11T06:03:24.287Z,3.40
2023-01-11T06:04:25.994Z,3.18
2023-01-11T06:05:27.647Z,3.00
2023-01-11T06:06:29.747Z,2.88
2023-01-11T06:07:31.466Z,2.74
2023-01-11T06:08:33.195Z,2.67
2023-01-11T06:09:34.773Z,2.72
2023-01-11T06:10:36.471Z,2.78
2023-01-11T06:11:38.051Z,2.69
2023-01-11T06:12:39.829Z,2.69
2023-01-11T06:13:41.925Z,2.54
2023-01-11T06:14:43.487Z,2.36
2023-01-11T06:15:45.034Z,2.28
2023-01-11T06:16:46.672Z,2.21
2023-01-11T06:17:48.284Z,2.18
2023-01-11T06:18:51.686Z,2.13
2023-01-11T06:19:53.237Z,2.08
2023-01-11T06:20:56.237Z,2.02
2023-01-11T06:21:57.821Z,2.01
2023-01-11T06:22:59.331Z,1.96
2023-01-11T06:24:00.916Z,1.92
2023-01-11T06:25:02.423Z,1.95
2023-01-11T06:26:05.982Z,1.99
2023-01-11T06:27:07.658Z,2.06
2023-01-11T06:28:09.291Z,2.11
2023-01-11T06:29:11.628Z,2.22
2023-01-11T06:30:13.510Z,2.35
2023-01-11T06:31:17.369Z,2.46
2023-01-11T06:32:19.600Z,2.54
2023-01-11T06:33:23.403Z,2.64
2023-01-11T06:34:25.055Z,2.71
2023-01-11T06:35:26.603Z,2.74
2023-01-11T06:36:29.772Z,2.79
2023-01-11T06:37:31.500Z,2.89
2023-01-11T06:38:33.376Z,2.98
2023-01-11T06:39:34.911Z,3.06
2023-01-11T06:40:37.502Z,3.13
2023-01-11T06:41:39.066Z,3.21
2023-01-11T06:42:40.584Z,3.27
2023-01-11T06:43:42.527Z,3.29
2023-01-11T06:44:44.143Z,3.38
2023-01-11T06:45:45.758Z,3.46
2023-01-11T06:46:47.329Z,3.50
2023-01-11T06:47:49.374Z,3.54
2023-01-11T06:48:50.985Z,3.56
2023-01-11T06:49:52.482Z,3.54
2023-01-11T06:50:57.017Z,3.57
2023-01-11T06:51:58.600Z,3.61
2023-01-11T06:53:02.054Z,3.67
2023-01-11T06:54:03.724Z,3.76
2023-01-11T06:55:05.832Z,3.81
2023-01-11T06:56:08.301Z,3.87
2023-01-11T06:57:09.833Z,3.92
2023-01-11T06:58:11.693Z,3.96
2023-01-11T06:59:13.505Z,3.91
2023-01-11T07:00:16.747Z,3.79
2023-01-11T07:01:18.761Z,3.65
2023-01-11T07:02:20.426Z,3.47
2023-01-11T07:03:24.270Z,3.31
2023-01-11T07:04:25.988Z,3.19
2023-01-11T07:05:27.553Z,3.11
2023-01-11T07:06:31.996Z,3.09
2023-01-11T07:07:33.589Z,3.15
2023-01-11T07:08:35.325Z,3.25
2023-01-11T07:09:36.984Z,3.33
2023-01-11T07:10:38.679Z,3.36
2023-01-11T07:11:40.404Z,3.40
2023-01-11T07:12:42.438Z,3.46
2023-01-11T07:13:48.863Z,3.50
2023-01-11T07:14:50.765Z,3.46
2023-01-11T07:15:54.235Z,3.30
2023-01-11T07:16:55.899Z,3.12
2023-01-11T07:17:59.076Z,2.84
2023-01-11T07:19:00.671Z,2.64
2023-01-11T07:20:02.927Z,2.48
2023-01-11T07:21:04.529Z,2.43
2023-01-11T07:22:06.354Z,2.45
2023-01-11T07:23:08.318Z,2.54
2023-01-11T07:24:10.263Z,2.60
2023-01-11T07:25:11.856Z,2.59
2023-01-11T07:26:14.428Z,2.61
2023-01-11T07:27:16.126Z,2.74
2023-01-11T07:28:17.786Z,2.88
2023-01-11T07:29:20.025Z,3.03
2023-01-11T07:30:21.664Z,3.15
2023-01-11T07:31:23.252Z,3.29
2023-01-11T07:32:24.837Z,3.38
2023-01-11T07:33:26.923Z,3.44
2023-01-11T07:34:28.496Z,3.53
2023-01-11T07:35:30.858Z,3.56
2023-01-11T07:36:36.048Z,3.57
2023-01-11T07:37:38.151Z,3.58
2023-01-11T07:38:39.701Z,3.63
2023-01-11T07:39:43.754Z,3.70
2023-01-11T07:40:45.905Z,3.79
2023-01-11T07:42:05.905Z,3.85
2023-01-11T07:43:11.403Z,3.91
2023-01-11T07:44:12.937Z,3.96
2023-01-11T07:45:14.642Z,4.01
2023-01-11T07:46:16.367Z,4.07
2023-01-11T07:47:17.987Z,4.14
2023-01-11T07:48:25.171Z,4.20
2023-01-11T07:49:27.427Z,4.25
2023-01-11T07:50:29.234Z,4.30
2023-01-11T07:51:30.860Z,4.37
2023-01-11T07:52:32.472Z,4.39
2023-01-11T07:53:34.091Z,4.44
2023-01-11T07:54:35.625Z,4.48
2023-01-11T07:55:40.228Z,4.23
2023-01-11T07:56:41.797Z,4.13
2023-01-11T07:57:43.341Z,4.15
2023-01-11T07:58:44.882Z,4.21
2023-01-11T07:59:46.487Z,4.23
2023-01-11T08:00:48.142Z,4.24
2023-01-11T08:01:49.689Z,4.25
2023-01-11T08:02:52.838Z,4.34
2023-01-11T08:03:54.543Z,4.41
2023-01-11T08:04:56.095Z,4.47
2023-01-11T08:05:57.646Z,4.54
2023-01-11T08:06:59.236Z,4.60
2023-01-11T08:08:00.845Z,4.65
2023-01-11T08:09:02.415Z,4.72
2023-01-11T08:10:05.031Z,4.74
2023-01-11T08:11:25.269Z,4.77
2023-01-11T08:12:45.487Z,4.80
2023-01-11T08:14:05.535Z,4.68
2023-01-11T08:15:10.228Z,4.58
2023-01-11T08:16:11.855Z,4.58
2023-01-11T08:17:16.047Z,4.60
2023-01-11T08:18:17.687Z,4.67
2023-01-11T08:19:19.289Z,4.70
2023-01-11T08:20:21.050Z,4.75
2023-01-11T08:21:22.776Z,4.81
2023-01-11T08:22:24.400Z,4.86
2023-01-11T08:23:27.209Z,4.92
2023-01-11T08:24:28.852Z,5.03
2023-01-11T08:25:30.849Z,5.10
2023-01-11T08:26:32.529Z,5.06
2023-01-11T08:27:34.149Z,5.02
2023-01-11T08:28:35.762Z,5.03
2023-01-11T08:29:37.984Z,5.09
2023-01-11T08:30:39.590Z,5.13
2023-01-11T08:31:44.775Z,5.18
2023-01-11T08:32:46.337Z,5.23
2023-01-11T08:33:50.803Z,5.24
2023-01-11T08:34:52.404Z,5.28
2023-01-11T08:35:53.958Z,5.21
2023-01-11T08:37:02.073Z,5.18
2023-01-11T08:38:03.609Z,5.18
2023-01-11T08:39:05.626Z,5.18
2023-01-11T08:40:08.099Z,5.09
2023-01-11T08:41:14.068Z,5.10
2023-01-11T08:42:15.773Z,5.19
2023-01-11T08:43:17.314Z,5.18
2023-01-11T08:44:25.481Z,5.24
2023-01-11T08:45:34.724Z,5.29
2023-01-11T08:46:38.178Z,5.17
2023-01-11T08:47:39.887Z,5.21
2023-01-11T08:48:41.743Z,5.32
2023-01-11T08:49:43.441Z,5.40
2023-01-11T08:50:45.308Z,5.48
2023-01-11T08:51:46.942Z,5.51
2023-01-11T08:52:48.545Z,5.60
2023-01-11T08:53:52.890Z,5.70
2023-01-11T08:54:54.468Z,5.76
2023-01-11T08:55:56.092Z,5.80
2023-01-11T08:56:57.599Z,5.84
2023-01-11T08:57:59.193Z,5.84
2023-01-11T08:59:02.292Z,5.78
2023-01-11T09:00:05.397Z,5.65
2023-01-11T09:01:09.272Z,5.62
2023-01-11T09:02:12.813Z,5.50
2023-01-11T09:03:15.202Z,5.42
2023-01-11T09:04:24.695Z,5.38
2023-01-11T09:05:26.562Z,5.35
2023-01-11T09:06:28.132Z,5.30
2023-01-11T09:07:29.734Z,5.30
2023-01-11T09:08:31.257Z,5.14
2023-01-11T09:09:33.114Z,5.14
2023-01-11T09:10:35.174Z,5.23
2023-01-11T09:11:54.851Z,5.23
2023-01-11T09:12:57.410Z,5.28
2023-01-11T09:13:59.205Z,5.30
2023-01-11T09:15:00.798Z,5.33
2023-01-11T09:16:02.394Z,5.42
2023-01-11T09:17:04.017Z,5.50
2023-01-11T09:18:05.659Z,5.58
2023-01-11T09:19:07.313Z,5.64
2023-01-11T09:20:09.793Z,5.72
2023-01-11T09:21:11.358Z,5.75
2023-01-11T09:22:12.899Z,5.81
2023-01-11T09:23:14.480Z,5.87
2023-01-11T09:24:16.035Z,5.89
2023-01-11T09:25:18.389Z,5.90
2023-01-11T09:26:21.142Z,5.86
2023-01-11T09:27:22.792Z,5.64
2023-01-11T09:28:24.420Z,5.37
2023-01-11T09:29:26.221Z,5.29
2023-01-11T09:30:27.806Z,5.12
2023-01-11T09:31:29.492Z,5.09
2023-01-11T09:32:31.154Z,5.15
2023-01-11T09:33:34.663Z,5.22
2023-01-11T09:34:36.737Z,5.35
2023-01-11T09:35:42.346Z,5.44
2023-01-11T09:36:45.224Z,5.46
2023-01-11T09:37:51.483Z,5.46
2023-01-11T09:38:56.768Z,5.34
2023-01-11T09:39:59.797Z,5.25
2023-01-11T09:41:28.283Z,5.18
2023-01-11T09:42:40.687Z,5.15
2023-01-11T09:43:50.201Z,5.06
2023-01-11T09:44:56.675Z,5.10
2023-01-11T09:46:08.612Z,5.09
2023-01-11T09:47:21.410Z,5.10
2023-01-11T09:48:33.322Z,5.12
2023-01-11T09:49:40.715Z,5.01
2023-01-11T09:50:47.865Z,4.99
2023-01-11T09:51:53.840Z,5.09
2023-01-11T09:53:03.501Z,5.17
2023-01-11T09:54:10.210Z,5.19
2023-01-11T09:55:21.315Z,5.26
2023-01-11T09:56:31.559Z,5.34
2023-01-11T09:57:54.503Z,5.26
2023-01-11T09:59:40.553Z,5.13
2023-01-11T10:01:10.841Z,5.11
2023-01-11T10:02:28.292Z,5.20
2023-01-11T10:03:54.376Z,5.34
2023-01-11T10:05:18.594Z,5.45
2023-01-11T10:06:59.256Z,5.60
2023-01-11T10:18:30.183Z,5.56
2023-01-11T10:18:30.322Z,5.50
2023-01-11T10:18:31.012Z,5.70
2023-01-11T10:19:48.113Z,5.70
2023-01-11T10:20:55.157Z,5.73
2023-01-11T10:22:08.300Z,5.58
2023-01-11T10:23:29.007Z,5.58
2023-01-11T10:24:44.036Z,5.55
2023-01-11T10:25:51.702Z,5.52
2023-01-11T10:26:58.137Z,5.53
2023-01-11T10:28:08.010Z,5.67
2023-01-11T10:29:16.235Z,5.81
2023-01-11T10:30:42.150Z,5.88
2023-01-11T10:32:15.043Z,5.81
2023-01-11T10:33:45.420Z,5.91
2023-01-11T10:35:19.159Z,5.86
2023-01-11T10:37:03.379Z,6.01
2023-01-11T10:38:30.952Z,6.17
2023-01-11T10:40:40.279Z,6.37
2023-01-11T10:42:01.424Z,6.50
2023-01-11T10:43:13.028Z,6.57
2023-01-11T10:44:53.278Z,6.64
2023-01-11T10:46:01.530Z,6.71
2023-01-11T10:47:07.367Z,6.70
2023-01-11T10:48:29.173Z,6.66
2023-01-11T10:49:40.176Z,6.71
2023-01-11T10:50:47.749Z,6.67
2023-01-11T10:51:49.698Z,6.55
2023-01-11T10:53:00.103Z,6.48
2023-01-11T10:54:18.053Z,6.59
2023-01-11T10:55:40.952Z,6.59
2023-01-11T10:57:09.114Z,6.61
2023-01-11T10:58:37.105Z,6.70
2023-01-11T10:59:50.882Z,6.82
2023-01-11T11:01:08.769Z,6.82
2023-01-11T11:02:21.401Z,6.76
2023-01-11T11:03:42.092Z,6.74
2023-01-11T11:04:55.794Z,6.89
2023-01-11T11:06:04.558Z,6.96
2023-01-11T11:07:16.080Z,6.96
2023-01-11T11:08:27.127Z,6.86
2023-01-11T11:09:55.677Z,6.80
2023-01-11T11:11:00.303Z,6.78
2023-01-11T11:12:26.381Z,6.94
2023-01-11T11:13:45.879Z,6.93
2023-01-11T11:14:57.855Z,6.85
2023-01-11T11:16:07.897Z,6.78
2023-01-11T11:17:32.204Z,6.89
2023-01-11T11:18:33.955Z,6.94
2023-01-11T11:19:35.706Z,6.82
2023-01-11T11:20:37.400Z,6.81
2023-01-11T11:21:42.217Z,6.80
2023-01-11T11:22:45.176Z,6.82
2023-01-11T11:24:10.502Z,6.88
2023-01-11T11:25:33.160Z,6.89
2023-01-11T11:26:39.687Z,6.80
2023-01-11T11:27:46.935Z,6.77
2023-01-11T11:29:09.096Z,6.99
2023-01-11T11:30:12.765Z,7.14
2023-01-11T11:31:15.303Z,7.25
2023-01-11T11:32:23.120Z,7.28
2023-01-11T11:33:31.239Z,7.41
2023-01-11T11:34:32.964Z,7.45
2023-01-11T11:35:40.956Z,7.58
2023-01-11T11:36:47.846Z,7.70
2023-01-11T11:37:49.679Z,7.76
2023-01-11T11:39:09.936Z,7.81
2023-01-11T11:40:29.018Z,7.89
2023-01-11T11:41:46.312Z,7.81
2023-01-11T11:42:47.936Z,7.85
2023-01-11T11:43:49.519Z,7.87
2023-01-11T11:45:09.205Z,7.82
2023-01-11T11:46:21.613Z,7.79
2023-01-11T11:47:23.218Z,7.86
2023-01-11T11:48:26.969Z,7.92
2023-01-11T11:49:30.774Z,7.93
2023-01-11T11:50:44.158Z,7.94
2023-01-11T11:51:48.207Z,7.97
2023-01-11T11:52:53.376Z,7.97
2023-01-11T11:53:56.326Z,7.96
2023-01-11T11:54:59.219Z,7.97
2023-01-11T11:56:15.916Z,7.98
2023-01-11T11:57:28.430Z,7.99
2023-01-11T11:58:30.950Z,8.03
2023-01-11T11:59:33.266Z,8.02
2023-01-11T12:00:41.660Z,8.04
2023-01-11T12:01:47.401Z,8.06
2023-01-11T12:02:55.028Z,8.06
2023-01-11T12:04:13.767Z,8.04
2023-01-11T12:05:15.703Z,8.03
2023-01-11T12:06:26.546Z,8.07
2023-01-11T12:07:53.875Z,8.04
2023-01-11T12:09:00.361Z,8.05
2023-01-11T12:10:29.015Z,8.08
2023-01-11T12:11:35.919Z,8.08
2023-01-11T12:12:57.578Z,8.09
2023-01-11T12:14:34.391Z,8.08
2023-01-11T12:15:36.374Z,8.06
2023-01-11T12:16:43.052Z,8.01
2023-01-11T12:17:44.689Z,7.98
2023-01-11T12:18:46.809Z,8.05
2023-01-11T12:19:48.324Z,8.04
2023-01-11T12:20:49.902Z,8.02
2023-01-11T12:21:51.775Z,8.12
2023-01-11T12:23:09.208Z,8.14
2023-01-11T12:24:19.576Z,8.24
2023-01-11T12:25:24.273Z,8.23
2023-01-11T12:26:40.733Z,8.27
2023-01-11T12:28:00.653Z,8.34
2023-01-11T12:29:08.408Z,8.32
2023-01-11T12:30:33.077Z,8.32
2023-01-11T12:32:05.944Z,8.28
2023-01-11T12:33:35.445Z,8.31
2023-01-11T12:35:04.872Z,8.32
2023-01-11T12:36:21.738Z,8.33
2023-01-11T12:37:39.953Z,8.28
2023-01-11T12:38:53.808Z,8.14
2023-01-11T12:40:17.334Z,8.06
2023-01-11T12:41:43.666Z,8.10
2023-01-11T12:43:13.537Z,8.24
2023-01-11T12:44:41.575Z,8.28
2023-01-11T12:46:03.711Z,8.24
2023-01-11T12:47:23.412Z,8.28
2023-01-11T12:49:10.463Z,8.28
2023-01-11T12:50:24.876Z,8.26
2023-01-11T12:51:52.251Z,8.23
2023-01-11T12:53:28.279Z,8.17
2023-01-11T12:55:08.977Z,8.13
2023-01-11T12:56:26.432Z,8.12
2023-01-11T12:57:39.515Z,8.16
2023-01-11T12:59:18.168Z,8.16
2023-01-11T13:00:52.387Z,8.18
2023-01-11T13:02:31.472Z,8.10
2023-01-11T13:04:03.693Z,8.08
2023-01-11T13:05:32.428Z,7.99
2023-01-11T13:06:40.871Z,7.99
2023-01-11T13:08:11.543Z,8.01
2023-01-11T13:09:29.292Z,8.02
2023-01-11T13:10:41.474Z,8.00
2023-01-11T13:12:08.940Z,8.03
2023-01-11T13:13:25.542Z,8.02
2023-01-11T13:15:05.572Z,7.89
2023-01-11T13:17:01.587Z,7.94
2023-01-11T13:18:22.047Z,7.96
2023-01-11T13:19:32.842Z,8.03
2023-01-11T13:21:01.360Z,8.04
2023-01-11T13:22:12.125Z,8.20
2023-01-11T13:23:20.417Z,8.23
2023-01-11T13:24:29.398Z,8.16
2023-01-11T13:25:35.299Z,8.14
2023-01-11T13:26:44.170Z,8.07
2023-01-11T13:27:47.174Z,8.02
2023-01-11T13:29:01.372Z,7.94
2023-01-11T13:30:03.827Z,7.94
2023-01-11T13:31:09.545Z,7.91
2023-01-11T13:32:23.461Z,7.88
2023-01-11T13:33:30.836Z,7.83
2023-01-11T13:34:39.511Z,7.84
2023-01-11T13:35:56.589Z,7.78
2023-01-11T13:37:14.187Z,7.78
2023-01-11T13:38:38.927Z,7.82
2023-01-11T13:39:48.525Z,7.87
2023-01-11T13:40:53.605Z,7.85
2023-01-11T13:42:08.800Z,7.77
2023-01-11T13:43:34.296Z,7.72
2023-01-11T13:44:42.634Z,7.64
2023-01-11T13:45:50.472Z,7.62
2023-01-11T13:47:02.037Z,7.62
2023-01-11T13:48:26.698Z,7.61
2023-01-11T13:49:44.187Z,7.55
2023-01-11T13:50:56.620Z,7.47
2023-01-11T13:52:04.790Z,7.47
2023-01-11T13:53:27.767Z,7.47
2023-01-11T13:54:39.672Z,7.49
2023-01-11T13:55:56.552Z,7.46
2023-01-11T13:57:06.743Z,7.47
2023-01-11T13:58:25.441Z,7.47
2023-01-11T13:59:31.684Z,7.46
2023-01-11T14:00:40.952Z,7.41
2023-01-11T14:01:51.390Z,7.35
2023-01-11T14:03:06.123Z,7.29
2023-01-11T14:04:33.819Z,7.29
2023-01-11T14:05:51.399Z,7.27
2023-01-11T14:06:58.593Z,7.23
2023-01-11T14:08:22.687Z,7.21
2023-01-11T14:09:46.480Z,7.14
2023-01-11T14:11:18.346Z,7.19
2023-01-11T14:12:52.401Z,7.17
2023-01-11T14:14:21.020Z,7.07
2023-01-11T14:15:32.385Z,7.02
2023-01-11T14:16:38.888Z,6.97
2023-01-11T14:17:43.287Z,6.97
2023-01-11T14:19:05.712Z,6.95
2023-01-11T14:20:28.762Z,6.92
2023-01-11T14:21:34.084Z,6.91
2023-01-11T14:22:45.544Z,6.89
2023-01-11T14:23:51.023Z,6.81
2023-01-11T14:25:24.138Z,6.77
2023-01-11T14:26:35.299Z,6.74
2023-01-11T14:28:07.963Z,6.74
2023-01-11T14:29:28.322Z,6.73
2023-01-11T14:30:29.876Z,6.70
2023-01-11T14:32:12.399Z,6.58
2023-01-11T14:33:29.127Z,6.66
2023-01-11T14:34:39.813Z,6.63
2023-01-11T14:36:11.908Z,6.56
2023-01-11T14:37:20.687Z,6.56
2023-01-11T14:38:47.012Z,6.53
2023-01-11T14:40:25.616Z,6.46
2023-01-11T14:41:59.886Z,6.46
2023-01-11T14:43:23.080Z,6.42
2023-01-11T14:45:18.011Z,6.39
2023-01-11T14:46:50.964Z,6.36
2023-01-11T14:48:16.694Z,6.29
2023-01-11T14:49:24.233Z,6.30
2023-01-11T14:51:07.241Z,6.35
2023-01-11T14:52:31.135Z,6.37
2023-01-11T14:53:52.405Z,6.30
2023-01-11T14:54:58.132Z,6.25
2023-01-11T14:56:00.010Z,6.25
2023-01-11T14:57:01.784Z,6.28
2023-01-11T14:58:29.252Z,6.31
2023-01-11T14:59:30.745Z,6.30
2023-01-11T15:00:32.254Z,6.27
2023-01-11T15:02:05.638Z,6.21
2023-01-11T15:03:10.102Z,6.20
2023-01-11T15:04:22.636Z,6.21
2023-01-11T15:05:29.768Z,6.19
2023-01-11T15:06:31.488Z,6.19
2023-01-11T15:07:36.650Z,6.23
2023-01-11T15:08:42.508Z,6.15
2023-01-11T15:09:48.102Z,6.19
2023-01-11T15:10:56.564Z,6.16
2023-01-11T15:12:11.900Z,6.12
2023-01-11T15:13:22.119Z,6.10
2023-01-11T15:14:33.843Z,6.10
2023-01-11T15:15:54.116Z,6.14
2023-01-11T15:17:18.483Z,6.12
2023-01-11T15:18:23.257Z,6.07
2023-01-11T15:19:33.896Z,6.06
2023-01-11T15:20:51.174Z,6.04
2023-01-11T15:21:55.778Z,6.06
2023-01-11T15:23:02.296Z,6.03